sensor_id;sensor_type;location;lat;lon;timestamp;temperature;humidity
55213;DHT22;41083;52.932;6.674;2023-04-30T00:00:51;7.60;99.90
55213;DHT22;41083;52.932;6.674;2023-04-30T00:03:17;7.60;99.90
55213;DHT22;41083;52.932;6.674;2023-04-30T00:05:42;7.50;99.90
55213;DHT22;41083;52.932;6.674;2023-04-30T00:08:08;7.50;99.90
55213;DHT22;41083;52.932;6.674;2023-04-30T00:10:33;7.40;99.90
55213;DHT22;41083;52.932;6.674;2023-04-30T00:12:59;7.40;99.90
55213;DHT22;41083;52.932;6.674;2023-04-30T00:15:25;7.30;99.90
55213;DHT22;41083;52.932;6.674;2023-04-30T00:17:50;7.30;99.90
55213;DHT22;41083;52.932;6.674;2023-04-30T00:20:17;7.30;99.90
55213;DHT22;41083;52.932;6.674;2023-04-30T00:22:42;7.30;99.90
55213;DHT22;41083;52.932;6.674;2023-04-30T00:25:08;7.20;99.90
55213;DHT22;41083;52.932;6.674;2023-04-30T00:27:34;7.20;99.90
55213;DHT22;41083;52.932;6.674;2023-04-30T00:29:59;7.10;99.90
55213;DHT22;41083;52.932;6.674;2023-04-30T00:32:25;7.10;99.90
55213;DHT22;41083;52.932;6.674;2023-04-30T00:34:51;7.00;99.90
55213;DHT22;41083;52.932;6.674;2023-04-30T00:37:16;7.00;99.90
55213;DHT22;41083;52.932;6.674;2023-04-30T00:39:42;7.00;99.90
55213;DHT22;41083;52.932;6.674;2023-04-30T00:42:07;6.90;99.90
55213;DHT22;41083;52.932;6.674;2023-04-30T00:44:33;6.90;99.90
55213;DHT22;41083;52.932;6.674;2023-04-30T00:46:59;6.90;99.90
55213;DHT22;41083;52.932;6.674;2023-04-30T00:49:25;6.90;99.90
55213;DHT22;41083;52.932;6.674;2023-04-30T00:51:51;6.90;99.90
55213;DHT22;41083;52.932;6.674;2023-04-30T00:54:19;6.90;99.90
55213;DHT22;41083;52.932;6.674;2023-04-30T00:56:45;6.90;99.90
55213;DHT22;41083;52.932;6.674;2023-04-30T00:59:12;6.90;99.90
55213;DHT22;41083;52.932;6.674;2023-04-30T01:01:38;6.80;99.90
55213;DHT22;41083;52.932;6.674;2023-04-30T01:04:04;6.80;99.90
55213;DHT22;41083;52.932;6.674;2023-04-30T01:06:30;6.80;99.90
55213;DHT22;41083;52.932;6.674;2023-04-30T01:08:56;6.80;99.90
55213;DHT22;41083;52.932;6.674;2023-04-30T01:14:06;6.70;99.90
55213;DHT22;41083;52.932;6.674;2023-04-30T01:16:39;6.70;99.90
55213;DHT22;41083;52.932;6.674;2023-04-30T01:19:50;6.70;99.90
55213;DHT22;41083;52.932;6.674;2023-04-30T01:22:50;6.60;99.90
55213;DHT22;41083;52.932;6.674;2023-04-30T01:25:50;6.60;99.90
55213;DHT22;41083;52.932;6.674;2023-04-30T01:28:18;6.50;99.90
55213;DHT22;41083;52.932;6.674;2023-04-30T01:30:45;6.50;99.90
55213;DHT22;41083;52.932;6.674;2023-04-30T01:33:12;6.60;99.90
55213;DHT22;41083;52.932;6.674;2023-04-30T01:36:09;6.60;99.90
55213;DHT22;41083;52.932;6.674;2023-04-30T01:39:08;6.60;99.90
55213;DHT22;41083;52.932;6.674;2023-04-30T01:47:05;6.40;99.90
55213;DHT22;41083;52.932;6.674;2023-04-30T01:52:36;6.30;99.90
55213;DHT22;41083;52.932;6.674;2023-04-30T01:58:04;6.30;99.90
55213;DHT22;41083;52.932;6.674;2023-04-30T02:00:31;6.30;99.90
55213;DHT22;41083;52.932;6.674;2023-04-30T02:02:57;6.20;99.90
55213;DHT22;41083;52.932;6.674;2023-04-30T02:05:23;6.30;99.90
55213;DHT22;41083;52.932;6.674;2023-04-30T02:07:50;6.30;99.90
55213;DHT22;41083;52.932;6.674;2023-04-30T02:10:18;6.20;99.90
55213;DHT22;41083;52.932;6.674;2023-04-30T02:12:44;6.20;99.90
55213;DHT22;41083;52.932;6.674;2023-04-30T02:15:09;6.20;99.90
55213;DHT22;41083;52.932;6.674;2023-04-30T02:17:35;6.10;99.90
55213;DHT22;41083;52.932;6.674;2023-04-30T02:20:01;6.10;99.90
55213;DHT22;41083;52.932;6.674;2023-04-30T02:22:27;6.10;99.90
55213;DHT22;41083;52.932;6.674;2023-04-30T02:24:52;6.00;99.90
55213;DHT22;41083;52.932;6.674;2023-04-30T02:27:21;6.00;99.90
55213;DHT22;41083;52.932;6.674;2023-04-30T02:29:46;6.00;99.90
55213;DHT22;41083;52.932;6.674;2023-04-30T02:32:12;6.00;99.90
55213;DHT22;41083;52.932;6.674;2023-04-30T02:34:39;6.00;99.90
55213;DHT22;41083;52.932;6.674;2023-04-30T02:37:05;6.00;99.90
55213;DHT22;41083;52.932;6.674;2023-04-30T02:39:31;6.00;99.90
55213;DHT22;41083;52.932;6.674;2023-04-30T02:41:57;6.00;99.90
55213;DHT22;41083;52.932;6.674;2023-04-30T02:44:22;6.00;99.90
55213;DHT22;41083;52.932;6.674;2023-04-30T02:46:48;6.00;99.90
55213;DHT22;41083;52.932;6.674;2023-04-30T02:49:13;6.10;99.90
55213;DHT22;41083;52.932;6.674;2023-04-30T02:51:39;6.00;99.90
55213;DHT22;41083;52.932;6.674;2023-04-30T02:54:05;6.00;99.90
55213;DHT22;41083;52.932;6.674;2023-04-30T02:56:30;5.90;99.90
55213;DHT22;41083;52.932;6.674;2023-04-30T02:58:56;5.90;99.90
55213;DHT22;41083;52.932;6.674;2023-04-30T03:01:21;5.90;99.90
55213;DHT22;41083;52.932;6.674;2023-04-30T03:03:47;5.90;99.90
55213;DHT22;41083;52.932;6.674;2023-04-30T03:06:13;5.90;99.90
55213;DHT22;41083;52.932;6.674;2023-04-30T03:08:38;5.90;99.90
55213;DHT22;41083;52.932;6.674;2023-04-30T03:11:04;5.90;99.90
55213;DHT22;41083;52.932;6.674;2023-04-30T03:13:29;5.90;99.90
55213;DHT22;41083;52.932;6.674;2023-04-30T03:15:59;5.90;99.90
55213;DHT22;41083;52.932;6.674;2023-04-30T03:18:28;5.90;99.90
55213;DHT22;41083;52.932;6.674;2023-04-30T03:20:53;5.90;99.90
55213;DHT22;41083;52.932;6.674;2023-04-30T03:23:19;5.90;99.90
55213;DHT22;41083;52.932;6.674;2023-04-30T03:25:46;5.80;99.90
55213;DHT22;41083;52.932;6.674;2023-04-30T03:28:12;5.80;99.90
55213;DHT22;41083;52.932;6.674;2023-04-30T03:30:37;5.80;99.90
55213;DHT22;41083;52.932;6.674;2023-04-30T03:33:03;5.80;99.90
55213;DHT22;41083;52.932;6.674;2023-04-30T03:35:31;5.80;99.90
55213;DHT22;41083;52.932;6.674;2023-04-30T03:38:00;5.80;99.90
55213;DHT22;41083;52.932;6.674;2023-04-30T03:40:26;5.80;99.90
55213;DHT22;41083;52.932;6.674;2023-04-30T03:42:51;5.80;99.90
55213;DHT22;41083;52.932;6.674;2023-04-30T03:45:17;5.80;99.90
55213;DHT22;41083;52.932;6.674;2023-04-30T03:47:43;5.80;99.90
55213;DHT22;41083;52.932;6.674;2023-04-30T03:50:09;5.70;99.90
55213;DHT22;41083;52.932;6.674;2023-04-30T03:52:35;5.70;99.90
55213;DHT22;41083;52.932;6.674;2023-04-30T03:55:04;5.70;99.90
55213;DHT22;41083;52.932;6.674;2023-04-30T03:57:30;5.70;99.90
55213;DHT22;41083;52.932;6.674;2023-04-30T03:59:56;5.70;99.90
55213;DHT22;41083;52.932;6.674;2023-04-30T04:02:21;5.70;99.90
55213;DHT22;41083;52.932;6.674;2023-04-30T04:04:47;5.70;99.90
55213;DHT22;41083;52.932;6.674;2023-04-30T04:07:14;5.70;99.90
55213;DHT22;41083;52.932;6.674;2023-04-30T04:09:40;5.70;99.90
55213;DHT22;41083;52.932;6.674;2023-04-30T04:12:06;5.70;99.90
55213;DHT22;41083;52.932;6.674;2023-04-30T04:14:32;5.70;99.90
55213;DHT22;41083;52.932;6.674;2023-04-30T04:16:57;5.70;99.90
55213;DHT22;41083;52.932;6.674;2023-04-30T04:19:25;5.80;99.90
55213;DHT22;41083;52.932;6.674;2023-04-30T04:21:51;5.80;99.90
55213;DHT22;41083;52.932;6.674;2023-04-30T04:24:16;5.80;99.90
55213;DHT22;41083;52.932;6.674;2023-04-30T04:26:42;5.80;99.90
55213;DHT22;41083;52.932;6.674;2023-04-30T04:29:08;5.80;99.90
55213;DHT22;41083;52.932;6.674;2023-04-30T04:31:34;5.80;99.90
55213;DHT22;41083;52.932;6.674;2023-04-30T04:34:01;5.80;99.90
55213;DHT22;41083;52.932;6.674;2023-04-30T04:36:27;5.80;99.90
55213;DHT22;41083;52.932;6.674;2023-04-30T04:38:55;5.90;99.90
55213;DHT22;41083;52.932;6.674;2023-04-30T04:41:22;5.80;99.90
55213;DHT22;41083;52.932;6.674;2023-04-30T04:43:48;5.90;99.90
55213;DHT22;41083;52.932;6.674;2023-04-30T04:46:15;5.90;99.90
55213;DHT22;41083;52.932;6.674;2023-04-30T04:48:41;5.90;99.90
55213;DHT22;41083;52.932;6.674;2023-04-30T04:51:08;6.00;99.90
55213;DHT22;41083;52.932;6.674;2023-04-30T04:53:33;6.00;99.90
55213;DHT22;41083;52.932;6.674;2023-04-30T04:55:59;6.10;99.90
55213;DHT22;41083;52.932;6.674;2023-04-30T04:58:24;6.10;99.90
55213;DHT22;41083;52.932;6.674;2023-04-30T05:00:51;6.10;99.90
55213;DHT22;41083;52.932;6.674;2023-04-30T05:03:17;6.10;99.90
55213;DHT22;41083;52.932;6.674;2023-04-30T05:05:45;6.10;99.90
55213;DHT22;41083;52.932;6.674;2023-04-30T05:08:11;6.10;99.90
55213;DHT22;41083;52.932;6.674;2023-04-30T05:10:37;6.10;99.90
55213;DHT22;41083;52.932;6.674;2023-04-30T05:13:02;6.20;99.90
55213;DHT22;41083;52.932;6.674;2023-04-30T05:15:28;6.20;99.90
55213;DHT22;41083;52.932;6.674;2023-04-30T05:17:54;6.20;99.90
55213;DHT22;41083;52.932;6.674;2023-04-30T05:20:19;6.20;99.90
55213;DHT22;41083;52.932;6.674;2023-04-30T05:22:45;6.20;99.90
55213;DHT22;41083;52.932;6.674;2023-04-30T05:25:11;6.20;99.90
55213;DHT22;41083;52.932;6.674;2023-04-30T05:27:36;6.20;99.90
55213;DHT22;41083;52.932;6.674;2023-04-30T05:30:02;6.20;99.90
55213;DHT22;41083;52.932;6.674;2023-04-30T05:32:28;6.30;99.90
55213;DHT22;41083;52.932;6.674;2023-04-30T05:34:53;6.50;99.90
55213;DHT22;41083;52.932;6.674;2023-04-30T05:37:20;7.00;99.90
55213;DHT22;41083;52.932;6.674;2023-04-30T05:39:47;7.50;99.90
55213;DHT22;41083;52.932;6.674;2023-04-30T05:42:13;7.60;99.90
55213;DHT22;41083;52.932;6.674;2023-04-30T05:44:39;7.50;99.90
55213;DHT22;41083;52.932;6.674;2023-04-30T05:47:05;7.40;99.90
55213;DHT22;41083;52.932;6.674;2023-04-30T05:49:31;7.30;99.90
55213;DHT22;41083;52.932;6.674;2023-04-30T05:51:56;7.30;99.90
55213;DHT22;41083;52.932;6.674;2023-04-30T05:54:22;7.30;99.90
55213;DHT22;41083;52.932;6.674;2023-04-30T05:56:48;7.30;99.90
55213;DHT22;41083;52.932;6.674;2023-04-30T05:59:13;7.20;99.90
55213;DHT22;41083;52.932;6.674;2023-04-30T06:01:39;7.20;99.90
55213;DHT22;41083;52.932;6.674;2023-04-30T06:04:04;7.30;99.90
55213;DHT22;41083;52.932;6.674;2023-04-30T06:06:30;7.30;99.90
55213;DHT22;41083;52.932;6.674;2023-04-30T06:08:56;7.30;99.90
55213;DHT22;41083;52.932;6.674;2023-04-30T06:11:22;7.30;99.90
55213;DHT22;41083;52.932;6.674;2023-04-30T06:13:50;7.30;99.90
55213;DHT22;41083;52.932;6.674;2023-04-30T06:16:16;7.40;99.90
55213;DHT22;41083;52.932;6.674;2023-04-30T06:18:41;7.40;99.90
55213;DHT22;41083;52.932;6.674;2023-04-30T06:21:07;7.40;99.90
55213;DHT22;41083;52.932;6.674;2023-04-30T06:23:32;7.40;99.90
55213;DHT22;41083;52.932;6.674;2023-04-30T06:25:58;7.50;99.90
55213;DHT22;41083;52.932;6.674;2023-04-30T06:28:24;8.00;99.90
55213;DHT22;41083;52.932;6.674;2023-04-30T06:30:50;8.60;99.90
55213;DHT22;41083;52.932;6.674;2023-04-30T06:33:16;8.90;99.90
55213;DHT22;41083;52.932;6.674;2023-04-30T06:35:42;9.00;99.90
55213;DHT22;41083;52.932;6.674;2023-04-30T06:38:07;9.00;99.90
55213;DHT22;41083;52.932;6.674;2023-04-30T06:40:33;9.00;99.90
55213;DHT22;41083;52.932;6.674;2023-04-30T06:42:59;9.00;99.90
55213;DHT22;41083;52.932;6.674;2023-04-30T06:45:25;8.90;99.90
55213;DHT22;41083;52.932;6.674;2023-04-30T06:47:50;8.90;99.90
55213;DHT22;41083;52.932;6.674;2023-04-30T06:50:17;8.90;99.90
55213;DHT22;41083;52.932;6.674;2023-04-30T06:52:43;8.90;99.90
55213;DHT22;41083;52.932;6.674;2023-04-30T06:55:08;8.90;99.90
55213;DHT22;41083;52.932;6.674;2023-04-30T06:57:34;8.90;99.90
55213;DHT22;41083;52.932;6.674;2023-04-30T07:00:05;8.80;99.90
55213;DHT22;41083;52.932;6.674;2023-04-30T07:02:31;8.80;99.90
55213;DHT22;41083;52.932;6.674;2023-04-30T07:04:57;8.80;99.90
55213;DHT22;41083;52.932;6.674;2023-04-30T07:07:23;8.90;99.90
55213;DHT22;41083;52.932;6.674;2023-04-30T07:09:48;8.90;99.90
55213;DHT22;41083;52.932;6.674;2023-04-30T07:12:15;8.90;99.90
55213;DHT22;41083;52.932;6.674;2023-04-30T07:14:41;8.90;99.90
55213;DHT22;41083;52.932;6.674;2023-04-30T07:17:06;9.00;99.90
55213;DHT22;41083;52.932;6.674;2023-04-30T07:19:32;9.00;99.90
55213;DHT22;41083;52.932;6.674;2023-04-30T07:21:58;8.90;99.90
55213;DHT22;41083;52.932;6.674;2023-04-30T07:24:23;8.90;99.90
55213;DHT22;41083;52.932;6.674;2023-04-30T07:26:49;8.90;99.90
55213;DHT22;41083;52.932;6.674;2023-04-30T07:29:15;8.90;99.90
55213;DHT22;41083;52.932;6.674;2023-04-30T07:31:40;8.90;99.90
55213;DHT22;41083;52.932;6.674;2023-04-30T07:34:06;8.80;99.90
55213;DHT22;41083;52.932;6.674;2023-04-30T07:36:32;8.80;99.90
55213;DHT22;41083;52.932;6.674;2023-04-30T07:38:58;8.80;99.90
55213;DHT22;41083;52.932;6.674;2023-04-30T07:41:24;8.80;99.90
55213;DHT22;41083;52.932;6.674;2023-04-30T07:43:50;8.90;99.90
55213;DHT22;41083;52.932;6.674;2023-04-30T07:46:16;8.90;99.90
55213;DHT22;41083;52.932;6.674;2023-04-30T07:48:42;8.90;99.90
55213;DHT22;41083;52.932;6.674;2023-04-30T07:51:07;9.00;99.90
55213;DHT22;41083;52.932;6.674;2023-04-30T07:53:33;9.10;99.90
55213;DHT22;41083;52.932;6.674;2023-04-30T07:55:58;9.10;99.90
55213;DHT22;41083;52.932;6.674;2023-04-30T07:58:24;9.20;99.90
55213;DHT22;41083;52.932;6.674;2023-04-30T08:00:50;9.30;99.90
55213;DHT22;41083;52.932;6.674;2023-04-30T08:03:15;9.30;99.90
55213;DHT22;41083;52.932;6.674;2023-04-30T08:05:41;9.40;99.90
55213;DHT22;41083;52.932;6.674;2023-04-30T08:08:07;9.40;99.90
55213;DHT22;41083;52.932;6.674;2023-04-30T08:10:33;9.40;99.90
55213;DHT22;41083;52.932;6.674;2023-04-30T08:12:59;9.50;99.90
55213;DHT22;41083;52.932;6.674;2023-04-30T08:15:25;9.60;99.90
55213;DHT22;41083;52.932;6.674;2023-04-30T08:17:51;9.60;99.90
55213;DHT22;41083;52.932;6.674;2023-04-30T08:20:17;9.60;99.90
55213;DHT22;41083;52.932;6.674;2023-04-30T08:22:44;9.60;99.90
55213;DHT22;41083;52.932;6.674;2023-04-30T08:25:10;9.60;99.90
55213;DHT22;41083;52.932;6.674;2023-04-30T08:27:38;9.60;99.90
55213;DHT22;41083;52.932;6.674;2023-04-30T08:30:05;9.80;99.90
55213;DHT22;41083;52.932;6.674;2023-04-30T08:32:34;9.80;99.90
55213;DHT22;41083;52.932;6.674;2023-04-30T08:35:01;9.90;99.90
55213;DHT22;41083;52.932;6.674;2023-04-30T08:37:27;9.90;99.90
55213;DHT22;41083;52.932;6.674;2023-04-30T08:39:52;10.00;99.90
55213;DHT22;41083;52.932;6.674;2023-04-30T08:42:20;10.10;99.90
55213;DHT22;41083;52.932;6.674;2023-04-30T08:44:49;10.10;99.90
55213;DHT22;41083;52.932;6.674;2023-04-30T08:47:16;10.20;99.90
55213;DHT22;41083;52.932;6.674;2023-04-30T08:49:42;10.20;99.90
55213;DHT22;41083;52.932;6.674;2023-04-30T08:52:08;10.30;99.90
55213;DHT22;41083;52.932;6.674;2023-04-30T08:54:35;10.30;99.90
55213;DHT22;41083;52.932;6.674;2023-04-30T08:57:01;10.40;99.90
55213;DHT22;41083;52.932;6.674;2023-04-30T08:59:27;10.40;99.90
55213;DHT22;41083;52.932;6.674;2023-04-30T09:01:52;10.40;99.90
55213;DHT22;41083;52.932;6.674;2023-04-30T09:04:18;10.40;99.90
55213;DHT22;41083;52.932;6.674;2023-04-30T09:06:43;10.40;99.90
55213;DHT22;41083;52.932;6.674;2023-04-30T09:09:14;10.40;99.90
55213;DHT22;41083;52.932;6.674;2023-04-30T09:11:40;10.50;99.90
55213;DHT22;41083;52.932;6.674;2023-04-30T09:14:07;10.50;99.90
55213;DHT22;41083;52.932;6.674;2023-04-30T09:16:47;10.50;99.90
55213;DHT22;41083;52.932;6.674;2023-04-30T09:19:27;10.50;99.90
55213;DHT22;41083;52.932;6.674;2023-04-30T09:21:53;10.50;99.90
55213;DHT22;41083;52.932;6.674;2023-04-30T09:24:19;10.60;99.90
55213;DHT22;41083;52.932;6.674;2023-04-30T09:26:45;10.60;99.90
55213;DHT22;41083;52.932;6.674;2023-04-30T09:29:14;10.60;99.90
55213;DHT22;41083;52.932;6.674;2023-04-30T09:31:45;10.60;99.90
55213;DHT22;41083;52.932;6.674;2023-04-30T09:34:11;10.60;99.90
55213;DHT22;41083;52.932;6.674;2023-04-30T09:36:53;10.70;99.90
55213;DHT22;41083;52.932;6.674;2023-04-30T09:39:19;10.70;99.90
55213;DHT22;41083;52.932;6.674;2023-04-30T09:41:45;10.70;99.90
55213;DHT22;41083;52.932;6.674;2023-04-30T09:44:27;10.80;99.90
55213;DHT22;41083;52.932;6.674;2023-04-30T09:46:55;10.80;99.90
55213;DHT22;41083;52.932;6.674;2023-04-30T09:49:21;10.80;99.90
55213;DHT22;41083;52.932;6.674;2023-04-30T09:51:57;10.90;99.90
55213;DHT22;41083;52.932;6.674;2023-04-30T09:54:25;10.90;99.90
55213;DHT22;41083;52.932;6.674;2023-04-30T09:56:55;10.90;99.90
55213;DHT22;41083;52.932;6.674;2023-04-30T10:01:59;10.90;99.90
55213;DHT22;41083;52.932;6.674;2023-04-30T10:04:30;11.00;99.90
55213;DHT22;41083;52.932;6.674;2023-04-30T10:06:57;11.00;99.90
55213;DHT22;41083;52.932;6.674;2023-04-30T10:09:35;11.00;99.90
55213;DHT22;41083;52.932;6.674;2023-04-30T10:12:05;11.10;99.90
55213;DHT22;41083;52.932;6.674;2023-04-30T10:14:32;11.10;99.90
55213;DHT22;41083;52.932;6.674;2023-04-30T10:17:12;11.10;99.90
55213;DHT22;41083;52.932;6.674;2023-04-30T10:19:39;11.10;99.90
55213;DHT22;41083;52.932;6.674;2023-04-30T10:22:07;11.20;99.90
55213;DHT22;41083;52.932;6.674;2023-04-30T10:24:33;11.20;99.90
55213;DHT22;41083;52.932;6.674;2023-04-30T10:26:59;11.30;99.90
55213;DHT22;41083;52.932;6.674;2023-04-30T10:29:25;11.40;99.90
55213;DHT22;41083;52.932;6.674;2023-04-30T10:31:52;11.40;99.90
55213;DHT22;41083;52.932;6.674;2023-04-30T10:34:40;11.40;99.90
55213;DHT22;41083;52.932;6.674;2023-04-30T10:37:29;11.50;99.90
55213;DHT22;41083;52.932;6.674;2023-04-30T10:39:55;11.60;99.90
55213;DHT22;41083;52.932;6.674;2023-04-30T10:42:21;11.70;99.90
55213;DHT22;41083;52.932;6.674;2023-04-30T10:44:47;11.70;99.90
55213;DHT22;41083;52.932;6.674;2023-04-30T10:47:13;11.80;99.90
55213;DHT22;41083;52.932;6.674;2023-04-30T10:49:45;11.80;99.90
55213;DHT22;41083;52.932;6.674;2023-04-30T10:52:12;11.90;99.90
55213;DHT22;41083;52.932;6.674;2023-04-30T10:54:39;11.90;99.90
55213;DHT22;41083;52.932;6.674;2023-04-30T10:57:13;11.90;99.90
55213;DHT22;41083;52.932;6.674;2023-04-30T10:59:44;11.90;99.90
55213;DHT22;41083;52.932;6.674;2023-04-30T11:02:13;11.90;99.90
55213;DHT22;41083;52.932;6.674;2023-04-30T11:05:14;11.90;99.90
55213;DHT22;41083;52.932;6.674;2023-04-30T11:07:51;11.90;99.90
55213;DHT22;41083;52.932;6.674;2023-04-30T11:10:21;11.90;99.90
55213;DHT22;41083;52.932;6.674;2023-04-30T11:12:48;12.00;99.90
55213;DHT22;41083;52.932;6.674;2023-04-30T11:15:18;12.00;99.90
55213;DHT22;41083;52.932;6.674;2023-04-30T11:17:47;12.00;99.90
55213;DHT22;41083;52.932;6.674;2023-04-30T11:20:18;12.10;99.90
55213;DHT22;41083;52.932;6.674;2023-04-30T11:22:44;12.10;99.90
55213;DHT22;41083;52.932;6.674;2023-04-30T11:25:17;12.10;99.90
55213;DHT22;41083;52.932;6.674;2023-04-30T11:27:44;12.10;99.90
55213;DHT22;41083;52.932;6.674;2023-04-30T11:30:11;12.10;99.90
55213;DHT22;41083;52.932;6.674;2023-04-30T11:32:40;12.10;99.90
55213;DHT22;41083;52.932;6.674;2023-04-30T11:35:06;12.20;99.90
55213;DHT22;41083;52.932;6.674;2023-04-30T11:37:38;12.20;99.90
55213;DHT22;41083;52.932;6.674;2023-04-30T11:40:05;12.20;99.90
55213;DHT22;41083;52.932;6.674;2023-04-30T11:42:32;12.20;99.90
55213;DHT22;41083;52.932;6.674;2023-04-30T11:45:12;12.30;99.90
55213;DHT22;41083;52.932;6.674;2023-04-30T11:47:43;12.30;99.90
55213;DHT22;41083;52.932;6.674;2023-04-30T11:50:20;12.30;99.90
55213;DHT22;41083;52.932;6.674;2023-04-30T11:52:51;12.30;99.90
55213;DHT22;41083;52.932;6.674;2023-04-30T11:55:19;12.30;99.90
55213;DHT22;41083;52.932;6.674;2023-04-30T11:57:47;12.40;99.90
55213;DHT22;41083;52.932;6.674;2023-04-30T12:00:18;12.40;99.90
55213;DHT22;41083;52.932;6.674;2023-04-30T12:02:46;12.40;99.90
55213;DHT22;41083;52.932;6.674;2023-04-30T12:05:19;12.50;99.90
55213;DHT22;41083;52.932;6.674;2023-04-30T12:10:12;12.50;99.90
55213;DHT22;41083;52.932;6.674;2023-04-30T12:12:38;12.50;99.90
55213;DHT22;41083;52.932;6.674;2023-04-30T12:15:11;12.50;99.90
55213;DHT22;41083;52.932;6.674;2023-04-30T12:17:37;12.50;99.90
55213;DHT22;41083;52.932;6.674;2023-04-30T12:20:03;12.50;99.90
55213;DHT22;41083;52.932;6.674;2023-04-30T12:22:29;12.60;99.90
55213;DHT22;41083;52.932;6.674;2023-04-30T12:24:57;12.60;99.90
55213;DHT22;41083;52.932;6.674;2023-04-30T12:27:23;12.60;99.90
55213;DHT22;41083;52.932;6.674;2023-04-30T12:29:49;12.60;99.90
55213;DHT22;41083;52.932;6.674;2023-04-30T12:32:20;12.70;99.90
55213;DHT22;41083;52.932;6.674;2023-04-30T12:34:46;12.60;99.90
55213;DHT22;41083;52.932;6.674;2023-04-30T12:37:16;12.70;99.90
55213;DHT22;41083;52.932;6.674;2023-04-30T12:39:42;12.80;99.90
55213;DHT22;41083;52.932;6.674;2023-04-30T12:42:08;12.80;99.90
55213;DHT22;41083;52.932;6.674;2023-04-30T12:44:42;12.80;99.90
55213;DHT22;41083;52.932;6.674;2023-04-30T12:47:12;12.80;99.90
55213;DHT22;41083;52.932;6.674;2023-04-30T12:49:38;12.80;99.90
55213;DHT22;41083;52.932;6.674;2023-04-30T12:52:08;12.80;99.90
55213;DHT22;41083;52.932;6.674;2023-04-30T12:54:35;12.90;99.90
55213;DHT22;41083;52.932;6.674;2023-04-30T12:57:09;12.90;99.90
55213;DHT22;41083;52.932;6.674;2023-04-30T13:02:22;13.00;99.90
55213;DHT22;41083;52.932;6.674;2023-04-30T13:04:49;13.10;99.90
55213;DHT22;41083;52.932;6.674;2023-04-30T13:07:15;13.20;99.90
55213;DHT22;41083;52.932;6.674;2023-04-30T13:09:41;13.20;99.90
55213;DHT22;41083;52.932;6.674;2023-04-30T13:12:06;13.20;99.90
55213;DHT22;41083;52.932;6.674;2023-04-30T13:14:33;13.20;99.90
55213;DHT22;41083;52.932;6.674;2023-04-30T13:16:59;13.30;99.90
55213;DHT22;41083;52.932;6.674;2023-04-30T13:19:25;13.30;99.90
55213;DHT22;41083;52.932;6.674;2023-04-30T13:21:51;13.30;99.90
55213;DHT22;41083;52.932;6.674;2023-04-30T13:24:17;13.30;99.90
55213;DHT22;41083;52.932;6.674;2023-04-30T13:26:43;13.30;99.90
55213;DHT22;41083;52.932;6.674;2023-04-30T13:29:09;13.40;99.90
55213;DHT22;41083;52.932;6.674;2023-04-30T13:31:35;13.30;99.90
55213;DHT22;41083;52.932;6.674;2023-04-30T13:34:01;13.40;99.90
55213;DHT22;41083;52.932;6.674;2023-04-30T13:36:26;13.50;99.90
55213;DHT22;41083;52.932;6.674;2023-04-30T13:38:53;13.50;99.90
55213;DHT22;41083;52.932;6.674;2023-04-30T13:41:18;13.50;99.90
55213;DHT22;41083;52.932;6.674;2023-04-30T13:43:45;13.50;99.90
55213;DHT22;41083;52.932;6.674;2023-04-30T13:46:12;13.50;99.90
55213;DHT22;41083;52.932;6.674;2023-04-30T13:48:37;13.60;99.90
55213;DHT22;41083;52.932;6.674;2023-04-30T13:51:03;13.60;99.90
55213;DHT22;41083;52.932;6.674;2023-04-30T13:53:29;13.70;99.90
55213;DHT22;41083;52.932;6.674;2023-04-30T13:55:54;13.60;99.90
55213;DHT22;41083;52.932;6.674;2023-04-30T13:58:20;13.60;99.90
55213;DHT22;41083;52.932;6.674;2023-04-30T14:00:46;13.70;99.90
55213;DHT22;41083;52.932;6.674;2023-04-30T14:03:12;13.80;99.90
55213;DHT22;41083;52.932;6.674;2023-04-30T14:05:38;13.80;99.90
55213;DHT22;41083;52.932;6.674;2023-04-30T14:08:04;13.80;99.90
55213;DHT22;41083;52.932;6.674;2023-04-30T14:10:30;13.80;99.90
55213;DHT22;41083;52.932;6.674;2023-04-30T14:12:56;13.80;99.90
55213;DHT22;41083;52.932;6.674;2023-04-30T14:15:22;13.80;99.90
55213;DHT22;41083;52.932;6.674;2023-04-30T14:17:49;13.80;99.80
55213;DHT22;41083;52.932;6.674;2023-04-30T14:20:14;13.80;99.80
55213;DHT22;41083;52.932;6.674;2023-04-30T14:22:40;13.80;99.90
55213;DHT22;41083;52.932;6.674;2023-04-30T14:25:07;13.80;99.90
55213;DHT22;41083;52.932;6.674;2023-04-30T14:27:33;13.90;99.90
55213;DHT22;41083;52.932;6.674;2023-04-30T14:29:59;14.00;99.90
55213;DHT22;41083;52.932;6.674;2023-04-30T14:32:25;14.00;99.90
55213;DHT22;41083;52.932;6.674;2023-04-30T14:34:52;14.00;99.90
55213;DHT22;41083;52.932;6.674;2023-04-30T14:37:18;14.00;99.90
55213;DHT22;41083;52.932;6.674;2023-04-30T14:39:44;14.10;99.70
55213;DHT22;41083;52.932;6.674;2023-04-30T14:42:10;14.00;99.80
55213;DHT22;41083;52.932;6.674;2023-04-30T14:44:37;14.00;99.70
55213;DHT22;41083;52.932;6.674;2023-04-30T14:47:02;14.00;99.30
55213;DHT22;41083;52.932;6.674;2023-04-30T14:49:28;14.00;99.40
55213;DHT22;41083;52.932;6.674;2023-04-30T14:51:54;14.00;99.40
55213;DHT22;41083;52.932;6.674;2023-04-30T14:54:19;14.00;99.50
55213;DHT22;41083;52.932;6.674;2023-04-30T14:56:45;14.00;99.30
55213;DHT22;41083;52.932;6.674;2023-04-30T14:59:11;14.00;99.30
55213;DHT22;41083;52.932;6.674;2023-04-30T15:01:37;14.00;99.30
55213;DHT22;41083;52.932;6.674;2023-04-30T15:04:04;14.00;99.30
55213;DHT22;41083;52.932;6.674;2023-04-30T15:06:30;14.10;99.40
55213;DHT22;41083;52.932;6.674;2023-04-30T15:08:56;14.10;99.40
55213;DHT22;41083;52.932;6.674;2023-04-30T15:11:21;14.20;99.30
55213;DHT22;41083;52.932;6.674;2023-04-30T15:13:48;14.20;98.70
55213;DHT22;41083;52.932;6.674;2023-04-30T15:16:15;14.20;98.30
55213;DHT22;41083;52.932;6.674;2023-04-30T15:18:43;14.10;98.40
55213;DHT22;41083;52.932;6.674;2023-04-30T15:21:09;14.10;98.30
55213;DHT22;41083;52.932;6.674;2023-04-30T15:23:35;14.10;98.40
55213;DHT22;41083;52.932;6.674;2023-04-30T15:26:01;14.00;98.50
55213;DHT22;41083;52.932;6.674;2023-04-30T15:28:28;14.00;98.20
55213;DHT22;41083;52.932;6.674;2023-04-30T15:30:53;14.10;98.20
55213;DHT22;41083;52.932;6.674;2023-04-30T15:33:19;14.00;98.20
55213;DHT22;41083;52.932;6.674;2023-04-30T15:35:45;14.00;98.00
55213;DHT22;41083;52.932;6.674;2023-04-30T15:38:11;14.00;97.90
55213;DHT22;41083;52.932;6.674;2023-04-30T15:40:37;13.90;97.70
55213;DHT22;41083;52.932;6.674;2023-04-30T15:43:03;14.00;97.50
55213;DHT22;41083;52.932;6.674;2023-04-30T15:45:29;14.00;97.50
55213;DHT22;41083;52.932;6.674;2023-04-30T15:47:56;14.00;97.40
55213;DHT22;41083;52.932;6.674;2023-04-30T15:50:22;14.10;96.90
55213;DHT22;41083;52.932;6.674;2023-04-30T15:52:47;14.00;96.40
55213;DHT22;41083;52.932;6.674;2023-04-30T15:55:13;14.10;96.60
55213;DHT22;41083;52.932;6.674;2023-04-30T15:57:39;14.10;96.10
55213;DHT22;41083;52.932;6.674;2023-04-30T16:00:05;14.20;96.10
55213;DHT22;41083;52.932;6.674;2023-04-30T16:02:31;14.20;96.40